sensor_id;sensor_type;location;lat;lon;timestamp;temperature;humidity
52543;DHT22;38449;52.696;6.186;2023-07-29T00:01:35;18.30;99.90
52543;DHT22;38449;52.696;6.186;2023-07-29T00:04:02;18.50;99.90
52543;DHT22;38449;52.696;6.186;2023-07-29T00:06:28;18.50;99.90
52543;DHT22;38449;52.696;6.186;2023-07-29T00:08:55;18.40;99.90
52543;DHT22;38449;52.696;6.186;2023-07-29T00:11:21;18.30;99.90
52543;DHT22;38449;52.696;6.186;2023-07-29T00:13:48;18.40;99.90
52543;DHT22;38449;52.696;6.186;2023-07-29T00:16:16;18.30;99.90
52543;DHT22;38449;52.696;6.186;2023-07-29T00:18:44;18.40;99.90
52543;DHT22;38449;52.696;6.186;2023-07-29T00:21:10;18.30;99.90
52543;DHT22;38449;52.696;6.186;2023-07-29T00:23:36;18.30;99.90
52543;DHT22;38449;52.696;6.186;2023-07-29T00:26:03;18.20;99.90
52543;DHT22;38449;52.696;6.186;2023-07-29T00:28:30;18.30;99.90
52543;DHT22;38449;52.696;6.186;2023-07-29T00:30:57;18.20;99.90
52543;DHT22;38449;52.696;6.186;2023-07-29T00:33:24;18.20;99.90
52543;DHT22;38449;52.696;6.186;2023-07-29T00:35:51;18.20;99.90
52543;DHT22;38449;52.696;6.186;2023-07-29T00:38:17;18.20;99.90
52543;DHT22;38449;52.696;6.186;2023-07-29T00:40:43;18.20;99.90
52543;DHT22;38449;52.696;6.186;2023-07-29T00:43:11;18.10;99.90
52543;DHT22;38449;52.696;6.186;2023-07-29T00:45:38;18.10;99.90
52543;DHT22;38449;52.696;6.186;2023-07-29T00:48:05;18.00;99.90
52543;DHT22;38449;52.696;6.186;2023-07-29T00:50:32;18.00;99.90
52543;DHT22;38449;52.696;6.186;2023-07-29T00:53:00;17.90;99.90
52543;DHT22;38449;52.696;6.186;2023-07-29T00:55:26;18.00;99.90
52543;DHT22;38449;52.696;6.186;2023-07-29T00:57:55;17.90;99.90
52543;DHT22;38449;52.696;6.186;2023-07-29T01:00:22;17.90;99.90
52543;DHT22;38449;52.696;6.186;2023-07-29T01:02:48;17.90;99.90
52543;DHT22;38449;52.696;6.186;2023-07-29T01:05:16;17.90;99.90
52543;DHT22;38449;52.696;6.186;2023-07-29T01:08:05;17.90;99.90
52543;DHT22;38449;52.696;6.186;2023-07-29T01:11:08;17.80;99.90
52543;DHT22;38449;52.696;6.186;2023-07-29T01:13:48;17.80;99.90
52543;DHT22;38449;52.696;6.186;2023-07-29T01:16:29;17.70;99.90
52543;DHT22;38449;52.696;6.186;2023-07-29T01:18:58;17.70;99.90
52543;DHT22;38449;52.696;6.186;2023-07-29T01:21:27;17.70;99.90
52543;DHT22;38449;52.696;6.186;2023-07-29T01:23:58;17.60;99.90
52543;DHT22;38449;52.696;6.186;2023-07-29T01:26:25;17.60;99.90
52543;DHT22;38449;52.696;6.186;2023-07-29T01:28:51;17.70;99.90
52543;DHT22;38449;52.696;6.186;2023-07-29T01:34:02;17.60;99.90
52543;DHT22;38449;52.696;6.186;2023-07-29T01:36:33;17.50;99.90
52543;DHT22;38449;52.696;6.186;2023-07-29T01:39:06;17.50;99.90
52543;DHT22;38449;52.696;6.186;2023-07-29T01:41:34;17.60;99.90
52543;DHT22;38449;52.696;6.186;2023-07-29T01:44:03;17.60;99.90
52543;DHT22;38449;52.696;6.186;2023-07-29T01:46:33;17.60;99.90
52543;DHT22;38449;52.696;6.186;2023-07-29T01:48:59;17.60;99.90
52543;DHT22;38449;52.696;6.186;2023-07-29T01:51:25;17.60;99.90
52543;DHT22;38449;52.696;6.186;2023-07-29T01:53:52;17.60;99.90
52543;DHT22;38449;52.696;6.186;2023-07-29T01:56:18;17.70;99.90
52543;DHT22;38449;52.696;6.186;2023-07-29T01:58:44;17.60;99.90
52543;DHT22;38449;52.696;6.186;2023-07-29T02:01:10;17.60;99.90
52543;DHT22;38449;52.696;6.186;2023-07-29T02:03:37;17.60;99.90
52543;DHT22;38449;52.696;6.186;2023-07-29T02:06:03;17.50;99.90
52543;DHT22;38449;52.696;6.186;2023-07-29T02:08:30;17.60;99.90
52543;DHT22;38449;52.696;6.186;2023-07-29T02:10:56;17.60;99.90
52543;DHT22;38449;52.696;6.186;2023-07-29T02:13:22;17.60;99.90
52543;DHT22;38449;52.696;6.186;2023-07-29T02:15:48;17.70;99.90
52543;DHT22;38449;52.696;6.186;2023-07-29T02:18:18;17.70;99.90
52543;DHT22;38449;52.696;6.186;2023-07-29T02:20:44;17.80;99.90
52543;DHT22;38449;52.696;6.186;2023-07-29T02:23:15;17.80;99.90
52543;DHT22;38449;52.696;6.186;2023-07-29T02:25:43;17.80;99.90
52543;DHT22;38449;52.696;6.186;2023-07-29T02:28:09;17.70;99.90
52543;DHT22;38449;52.696;6.186;2023-07-29T02:30:36;17.80;99.90
52543;DHT22;38449;52.696;6.186;2023-07-29T02:33:04;17.70;99.90
52543;DHT22;38449;52.696;6.186;2023-07-29T02:35:30;17.70;99.90
52543;DHT22;38449;52.696;6.186;2023-07-29T02:37:58;17.70;99.90
52543;DHT22;38449;52.696;6.186;2023-07-29T02:40:24;17.80;99.90
52543;DHT22;38449;52.696;6.186;2023-07-29T02:42:52;17.70;99.90
52543;DHT22;38449;52.696;6.186;2023-07-29T02:45:19;17.70;99.90
52543;DHT22;38449;52.696;6.186;2023-07-29T02:47:45;17.70;99.90
52543;DHT22;38449;52.696;6.186;2023-07-29T02:50:11;17.50;99.90
52543;DHT22;38449;52.696;6.186;2023-07-29T02:52:38;17.60;99.90
52543;DHT22;38449;52.696;6.186;2023-07-29T02:55:04;17.50;99.90
52543;DHT22;38449;52.696;6.186;2023-07-29T02:57:31;17.50;99.90
52543;DHT22;38449;52.696;6.186;2023-07-29T02:59:57;17.50;99.90
52543;DHT22;38449;52.696;6.186;2023-07-29T03:02:25;17.50;99.90
52543;DHT22;38449;52.696;6.186;2023-07-29T03:04:51;17.40;99.90
52543;DHT22;38449;52.696;6.186;2023-07-29T03:07:18;17.40;99.90
52543;DHT22;38449;52.696;6.186;2023-07-29T03:09:44;17.40;99.90
52543;DHT22;38449;52.696;6.186;2023-07-29T03:12:11;17.30;99.90
52543;DHT22;38449;52.696;6.186;2023-07-29T03:14:37;17.30;99.90
52543;DHT22;38449;52.696;6.186;2023-07-29T03:17:03;17.30;99.90
52543;DHT22;38449;52.696;6.186;2023-07-29T03:19:32;17.30;99.90
52543;DHT22;38449;52.696;6.186;2023-07-29T03:22:00;17.30;99.90
52543;DHT22;38449;52.696;6.186;2023-07-29T03:24:26;17.20;99.90
52543;DHT22;38449;52.696;6.186;2023-07-29T03:26:53;17.20;99.90
52543;DHT22;38449;52.696;6.186;2023-07-29T03:29:19;17.30;99.90
52543;DHT22;38449;52.696;6.186;2023-07-29T03:31:45;17.20;99.90
52543;DHT22;38449;52.696;6.186;2023-07-29T03:34:44;17.20;99.90
52543;DHT22;38449;52.696;6.186;2023-07-29T03:37:11;17.20;99.90
52543;DHT22;38449;52.696;6.186;2023-07-29T03:39:37;17.10;99.90
52543;DHT22;38449;52.696;6.186;2023-07-29T03:42:03;17.10;99.90
52543;DHT22;38449;52.696;6.186;2023-07-29T03:44:30;17.00;99.90
52543;DHT22;38449;52.696;6.186;2023-07-29T03:46:57;17.10;99.90
52543;DHT22;38449;52.696;6.186;2023-07-29T03:49:24;17.00;99.90
52543;DHT22;38449;52.696;6.186;2023-07-29T03:51:50;17.00;99.90
52543;DHT22;38449;52.696;6.186;2023-07-29T03:54:16;17.20;99.90
52543;DHT22;38449;52.696;6.186;2023-07-29T03:56:43;17.00;99.90
52543;DHT22;38449;52.696;6.186;2023-07-29T03:59:10;17.00;99.90
52543;DHT22;38449;52.696;6.186;2023-07-29T04:01:36;17.10;99.90
52543;DHT22;38449;52.696;6.186;2023-07-29T04:04:02;17.10;99.90
52543;DHT22;38449;52.696;6.186;2023-07-29T04:06:29;17.00;99.90
52543;DHT22;38449;52.696;6.186;2023-07-29T04:08:55;17.00;99.90
52543;DHT22;38449;52.696;6.186;2023-07-29T04:11:23;17.10;99.90
52543;DHT22;38449;52.696;6.186;2023-07-29T04:13:49;17.00;99.90
52543;DHT22;38449;52.696;6.186;2023-07-29T04:16:19;17.00;99.90
52543;DHT22;38449;52.696;6.186;2023-07-29T04:18:45;17.00;99.90
52543;DHT22;38449;52.696;6.186;2023-07-29T04:21:12;17.00;99.90
52543;DHT22;38449;52.696;6.186;2023-07-29T04:23:38;16.90;99.90
52543;DHT22;38449;52.696;6.186;2023-07-29T04:26:04;17.00;99.90
52543;DHT22;38449;52.696;6.186;2023-07-29T04:28:31;17.00;99.90
52543;DHT22;38449;52.696;6.186;2023-07-29T04:30:57;16.90;99.90
52543;DHT22;38449;52.696;6.186;2023-07-29T04:33:23;17.00;99.90
52543;DHT22;38449;52.696;6.186;2023-07-29T04:35:50;17.00;99.90
52543;DHT22;38449;52.696;6.186;2023-07-29T04:38:16;17.00;99.90
52543;DHT22;38449;52.696;6.186;2023-07-29T04:40:42;17.00;99.90
52543;DHT22;38449;52.696;6.186;2023-07-29T04:43:08;17.10;99.90
52543;DHT22;38449;52.696;6.186;2023-07-29T04:45:35;17.00;99.90
52543;DHT22;38449;52.696;6.186;2023-07-29T04:48:01;17.10;99.90
52543;DHT22;38449;52.696;6.186;2023-07-29T04:50:28;17.00;99.90
52543;DHT22;38449;52.696;6.186;2023-07-29T04:52:54;17.10;99.90
52543;DHT22;38449;52.696;6.186;2023-07-29T04:55:21;17.10;99.90
52543;DHT22;38449;52.696;6.186;2023-07-29T04:57:47;17.10;99.90
52543;DHT22;38449;52.696;6.186;2023-07-29T05:00:13;17.10;99.90
52543;DHT22;38449;52.696;6.186;2023-07-29T05:02:39;17.10;99.90
52543;DHT22;38449;52.696;6.186;2023-07-29T05:05:06;17.20;99.90
52543;DHT22;38449;52.696;6.186;2023-07-29T05:07:33;17.20;99.90
52543;DHT22;38449;52.696;6.186;2023-07-29T05:10:00;17.30;99.90
52543;DHT22;38449;52.696;6.186;2023-07-29T05:12:26;17.30;99.90
52543;DHT22;38449;52.696;6.186;2023-07-29T05:14:52;17.20;99.90
52543;DHT22;38449;52.696;6.186;2023-07-29T05:17:19;17.20;99.90
52543;DHT22;38449;52.696;6.186;2023-07-29T05:19:46;17.20;99.90
52543;DHT22;38449;52.696;6.186;2023-07-29T05:22:13;17.40;99.90
52543;DHT22;38449;52.696;6.186;2023-07-29T05:24:39;17.40;99.90
52543;DHT22;38449;52.696;6.186;2023-07-29T05:27:14;17.30;99.90
52543;DHT22;38449;52.696;6.186;2023-07-29T05:29:40;17.40;99.90
52543;DHT22;38449;52.696;6.186;2023-07-29T05:32:06;17.40;99.90
52543;DHT22;38449;52.696;6.186;2023-07-29T05:34:33;17.40;99.90
52543;DHT22;38449;52.696;6.186;2023-07-29T05:36:59;17.40;99.90
52543;DHT22;38449;52.696;6.186;2023-07-29T05:39:25;17.40;99.90
52543;DHT22;38449;52.696;6.186;2023-07-29T05:41:52;17.40;99.90
52543;DHT22;38449;52.696;6.186;2023-07-29T05:44:19;17.50;99.90
52543;DHT22;38449;52.696;6.186;2023-07-29T05:46:45;17.50;99.90
52543;DHT22;38449;52.696;6.186;2023-07-29T05:49:11;17.50;99.90
52543;DHT22;38449;52.696;6.186;2023-07-29T05:51:38;17.50;99.90
52543;DHT22;38449;52.696;6.186;2023-07-29T05:54:04;17.50;99.90
52543;DHT22;38449;52.696;6.186;2023-07-29T05:56:31;17.50;99.90
52543;DHT22;38449;52.696;6.186;2023-07-29T05:58:57;17.50;99.90
52543;DHT22;38449;52.696;6.186;2023-07-29T06:01:24;17.60;99.90
52543;DHT22;38449;52.696;6.186;2023-07-29T06:03:50;17.70;99.90
52543;DHT22;38449;52.696;6.186;2023-07-29T06:06:17;18.00;99.90
52543;DHT22;38449;52.696;6.186;2023-07-29T06:08:43;18.60;99.90
52543;DHT22;38449;52.696;6.186;2023-07-29T06:11:10;19.20;99.90
52543;DHT22;38449;52.696;6.186;2023-07-29T06:13:36;19.70;99.90
52543;DHT22;38449;52.696;6.186;2023-07-29T06:16:03;19.80;99.90
52543;DHT22;38449;52.696;6.186;2023-07-29T06:18:29;19.60;99.90
52543;DHT22;38449;52.696;6.186;2023-07-29T06:20:55;19.30;99.90
52543;DHT22;38449;52.696;6.186;2023-07-29T06:23:21;19.10;99.90
52543;DHT22;38449;52.696;6.186;2023-07-29T06:25:48;19.10;99.90
52543;DHT22;38449;52.696;6.186;2023-07-29T06:28:14;19.10;99.90
52543;DHT22;38449;52.696;6.186;2023-07-29T06:30:42;19.00;99.90
52543;DHT22;38449;52.696;6.186;2023-07-29T06:33:08;18.80;99.90
52543;DHT22;38449;52.696;6.186;2023-07-29T06:35:35;18.90;99.90
52543;DHT22;38449;52.696;6.186;2023-07-29T06:38:01;18.80;99.90
52543;DHT22;38449;52.696;6.186;2023-07-29T06:40:27;18.70;99.90
52543;DHT22;38449;52.696;6.186;2023-07-29T06:42:54;18.60;99.90
52543;DHT22;38449;52.696;6.186;2023-07-29T06:45:20;18.60;99.90
52543;DHT22;38449;52.696;6.186;2023-07-29T06:47:49;18.60;99.90
52543;DHT22;38449;52.696;6.186;2023-07-29T06:50:22;18.60;99.90
52543;DHT22;38449;52.696;6.186;2023-07-29T06:53:00;18.70;99.90
52543;DHT22;38449;52.696;6.186;2023-07-29T06:55:26;18.60;99.90
52543;DHT22;38449;52.696;6.186;2023-07-29T06:57:53;18.80;99.90
52543;DHT22;38449;52.696;6.186;2023-07-29T07:00:19;18.80;99.90
52543;DHT22;38449;52.696;6.186;2023-07-29T07:02:45;19.10;99.90
52543;DHT22;38449;52.696;6.186;2023-07-29T07:05:11;19.60;99.90
52543;DHT22;38449;52.696;6.186;2023-07-29T07:07:39;20.20;99.90
52543;DHT22;38449;52.696;6.186;2023-07-29T07:10:06;20.60;99.90
52543;DHT22;38449;52.696;6.186;2023-07-29T07:12:32;20.70;99.90
52543;DHT22;38449;52.696;6.186;2023-07-29T07:15:00;20.50;99.90
52543;DHT22;38449;52.696;6.186;2023-07-29T07:17:26;20.30;99.90
52543;DHT22;38449;52.696;6.186;2023-07-29T07:19:53;20.20;99.90
52543;DHT22;38449;52.696;6.186;2023-07-29T07:22:19;20.00;99.90
52543;DHT22;38449;52.696;6.186;2023-07-29T07:24:45;19.80;99.90
52543;DHT22;38449;52.696;6.186;2023-07-29T07:27:12;19.70;99.90
52543;DHT22;38449;52.696;6.186;2023-07-29T07:29:38;19.80;99.90
52543;DHT22;38449;52.696;6.186;2023-07-29T07:32:05;19.60;99.90
52543;DHT22;38449;52.696;6.186;2023-07-29T07:34:32;19.80;99.90
52543;DHT22;38449;52.696;6.186;2023-07-29T07:36:59;20.10;99.90
52543;DHT22;38449;52.696;6.186;2023-07-29T07:39:27;20.20;99.90
52543;DHT22;38449;52.696;6.186;2023-07-29T07:41:53;20.30;99.90
52543;DHT22;38449;52.696;6.186;2023-07-29T07:44:20;20.50;99.90
52543;DHT22;38449;52.696;6.186;2023-07-29T07:46:47;20.80;99.90
52543;DHT22;38449;52.696;6.186;2023-07-29T07:49:13;21.10;99.90
52543;DHT22;38449;52.696;6.186;2023-07-29T07:51:40;21.00;99.90
52543;DHT22;38449;52.696;6.186;2023-07-29T07:54:06;21.00;99.90
52543;DHT22;38449;52.696;6.186;2023-07-29T07:56:32;20.90;99.90
52543;DHT22;38449;52.696;6.186;2023-07-29T07:58:59;20.80;99.90
52543;DHT22;38449;52.696;6.186;2023-07-29T08:01:25;20.90;99.90
52543;DHT22;38449;52.696;6.186;2023-07-29T08:03:51;20.80;99.90
52543;DHT22;38449;52.696;6.186;2023-07-29T08:06:18;21.00;99.90
52543;DHT22;38449;52.696;6.186;2023-07-29T08:08:45;21.20;99.90
52543;DHT22;38449;52.696;6.186;2023-07-29T08:11:11;21.20;99.90
52543;DHT22;38449;52.696;6.186;2023-07-29T08:13:37;21.30;99.90
52543;DHT22;38449;52.696;6.186;2023-07-29T08:16:05;21.30;99.90
52543;DHT22;38449;52.696;6.186;2023-07-29T08:18:31;21.30;99.90
52543;DHT22;38449;52.696;6.186;2023-07-29T08:21:00;21.30;99.90
52543;DHT22;38449;52.696;6.186;2023-07-29T08:23:31;21.20;99.90
52543;DHT22;38449;52.696;6.186;2023-07-29T08:25:59;21.30;99.90
52543;DHT22;38449;52.696;6.186;2023-07-29T08:28:30;21.30;99.90
52543;DHT22;38449;52.696;6.186;2023-07-29T08:30:57;21.20;99.90
52543;DHT22;38449;52.696;6.186;2023-07-29T08:33:26;21.20;99.90
52543;DHT22;38449;52.696;6.186;2023-07-29T08:35:53;21.30;99.90
52543;DHT22;38449;52.696;6.186;2023-07-29T08:38:20;21.30;99.90
52543;DHT22;38449;52.696;6.186;2023-07-29T08:41:15;21.30;99.90
52543;DHT22;38449;52.696;6.186;2023-07-29T08:43:44;21.40;99.90
52543;DHT22;38449;52.696;6.186;2023-07-29T08:46:15;21.70;99.90
52543;DHT22;38449;52.696;6.186;2023-07-29T08:48:43;21.90;99.90
52543;DHT22;38449;52.696;6.186;2023-07-29T08:51:11;21.90;99.90
52543;DHT22;38449;52.696;6.186;2023-07-29T08:53:38;21.70;99.90
52543;DHT22;38449;52.696;6.186;2023-07-29T08:56:05;21.80;99.90
52543;DHT22;38449;52.696;6.186;2023-07-29T08:58:31;21.90;99.90
52543;DHT22;38449;52.696;6.186;2023-07-29T09:00:58;21.80;99.90
52543;DHT22;38449;52.696;6.186;2023-07-29T09:03:25;21.80;99.90
52543;DHT22;38449;52.696;6.186;2023-07-29T09:05:52;21.50;99.90
52543;DHT22;38449;52.696;6.186;2023-07-29T09:08:19;21.70;99.90
52543;DHT22;38449;52.696;6.186;2023-07-29T09:10:45;21.90;99.90
52543;DHT22;38449;52.696;6.186;2023-07-29T09:13:12;22.10;99.90
52543;DHT22;38449;52.696;6.186;2023-07-29T09:15:38;22.30;99.90
52543;DHT22;38449;52.696;6.186;2023-07-29T09:18:09;22.20;99.90
52543;DHT22;38449;52.696;6.186;2023-07-29T09:20:36;22.20;99.90
52543;DHT22;38449;52.696;6.186;2023-07-29T09:23:02;22.20;99.90
52543;DHT22;38449;52.696;6.186;2023-07-29T09:25:29;22.10;99.90
52543;DHT22;38449;52.696;6.186;2023-07-29T09:27:59;21.80;99.90
52543;DHT22;38449;52.696;6.186;2023-07-29T09:30:27;22.00;99.90
52543;DHT22;38449;52.696;6.186;2023-07-29T09:32:57;22.00;99.90
52543;DHT22;38449;52.696;6.186;2023-07-29T09:35:27;22.20;99.90
52543;DHT22;38449;52.696;6.186;2023-07-29T09:37:54;22.30;99.90
52543;DHT22;38449;52.696;6.186;2023-07-29T09:40:20;22.40;99.90
52543;DHT22;38449;52.696;6.186;2023-07-29T09:42:50;22.70;99.90
52543;DHT22;38449;52.696;6.186;2023-07-29T09:45:21;22.60;99.90
52543;DHT22;38449;52.696;6.186;2023-07-29T09:47:47;22.60;99.90
52543;DHT22;38449;52.696;6.186;2023-07-29T09:50:14;22.70;99.90
52543;DHT22;38449;52.696;6.186;2023-07-29T09:52:41;22.70;99.90
52543;DHT22;38449;52.696;6.186;2023-07-29T09:55:10;22.50;99.90
52543;DHT22;38449;52.696;6.186;2023-07-29T09:57:37;22.30;99.90
52543;DHT22;38449;52.696;6.186;2023-07-29T10:00:05;22.20;99.90
52543;DHT22;38449;52.696;6.186;2023-07-29T10:02:41;22.00;99.90
52543;DHT22;38449;52.696;6.186;2023-07-29T10:05:09;21.90;99.90
52543;DHT22;38449;52.696;6.186;2023-07-29T10:07:39;21.80;99.90
52543;DHT22;38449;52.696;6.186;2023-07-29T10:10:08;21.90;99.90
52543;DHT22;38449;52.696;6.186;2023-07-29T10:12:35;21.90;99.90
52543;DHT22;38449;52.696;6.186;2023-07-29T10:15:06;22.00;99.90
52543;DHT22;38449;52.696;6.186;2023-07-29T10:17:35;22.10;99.90
52543;DHT22;38449;52.696;6.186;2023-07-29T10:20:04;22.20;99.90
52543;DHT22;38449;52.696;6.186;2023-07-29T10:22:42;22.20;99.90
52543;DHT22;38449;52.696;6.186;2023-07-29T10:25:16;22.00;99.90
52543;DHT22;38449;52.696;6.186;2023-07-29T10:27:43;21.80;99.90
52543;DHT22;38449;52.696;6.186;2023-07-29T10:30:13;21.50;99.90
52543;DHT22;38449;52.696;6.186;2023-07-29T10:32:42;21.50;99.90
52543;DHT22;38449;52.696;6.186;2023-07-29T10:35:14;21.40;99.90
52543;DHT22;38449;52.696;6.186;2023-07-29T10:37:42;21.30;99.90
52543;DHT22;38449;52.696;6.186;2023-07-29T10:40:10;21.30;99.90
52543;DHT22;38449;52.696;6.186;2023-07-29T10:42:38;21.50;99.90
52543;DHT22;38449;52.696;6.186;2023-07-29T10:45:20;21.70;99.90
52543;DHT22;38449;52.696;6.186;2023-07-29T10:47:48;22.10;99.90
52543;DHT22;38449;52.696;6.186;2023-07-29T10:50:21;22.30;99.90
52543;DHT22;38449;52.696;6.186;2023-07-29T10:52:52;22.30;99.90
52543;DHT22;38449;52.696;6.186;2023-07-29T10:58:13;22.00;99.90
52543;DHT22;38449;52.696;6.186;2023-07-29T11:00:44;21.80;99.90
52543;DHT22;38449;52.696;6.186;2023-07-29T11:03:13;21.60;99.90
52543;DHT22;38449;52.696;6.186;2023-07-29T11:05:53;21.40;99.90
52543;DHT22;38449;52.696;6.186;2023-07-29T11:08:27;21.40;99.90
52543;DHT22;38449;52.696;6.186;2023-07-29T11:13:27;21.60;99.90
52543;DHT22;38449;52.696;6.186;2023-07-29T11:15:55;21.60;99.90
52543;DHT22;38449;52.696;6.186;2023-07-29T11:18:32;21.60;99.90
52543;DHT22;38449;52.696;6.186;2023-07-29T11:21:02;21.80;99.90
52543;DHT22;38449;52.696;6.186;2023-07-29T11:23:34;21.80;99.90
52543;DHT22;38449;52.696;6.186;2023-07-29T11:26:03;22.00;99.90
52543;DHT22;38449;52.696;6.186;2023-07-29T11:28:30;22.20;99.90
52543;DHT22;38449;52.696;6.186;2023-07-29T11:30:57;22.30;99.90
52543;DHT22;38449;52.696;6.186;2023-07-29T11:33:26;22.40;99.90
52543;DHT22;38449;52.696;6.186;2023-07-29T11:35:55;22.40;99.90
52543;DHT22;38449;52.696;6.186;2023-07-29T11:38:22;22.40;99.90
52543;DHT22;38449;52.696;6.186;2023-07-29T11:40:59;22.50;99.90
52543;DHT22;38449;52.696;6.186;2023-07-29T11:43:26;22.70;99.90
52543;DHT22;38449;52.696;6.186;2023-07-29T11:45:53;22.90;99.90
52543;DHT22;38449;52.696;6.186;2023-07-29T11:48:27;23.10;99.90
52543;DHT22;38449;52.696;6.186;2023-07-29T11:50:54;23.10;99.90
52543;DHT22;38449;52.696;6.186;2023-07-29T11:53:21;23.00;99.90
52543;DHT22;38449;52.696;6.186;2023-07-29T11:55:51;23.00;99.90
52543;DHT22;38449;52.696;6.186;2023-07-29T11:58:19;23.10;99.90
52543;DHT22;38449;52.696;6.186;2023-07-29T12:00:46;23.00;99.90
52543;DHT22;38449;52.696;6.186;2023-07-29T12:03:13;23.00;99.90
52543;DHT22;38449;52.696;6.186;2023-07-29T12:05:39;22.90;99.90
52543;DHT22;38449;52.696;6.186;2023-07-29T12:08:07;23.00;99.90
52543;DHT22;38449;52.696;6.186;2023-07-29T12:10:34;23.00;99.90
52543;DHT22;38449;52.696;6.186;2023-07-29T12:13:02;23.20;99.90
52543;DHT22;38449;52.696;6.186;2023-07-29T12:15:29;23.40;99.90
52543;DHT22;38449;52.696;6.186;2023-07-29T12:17:57;23.30;99.90
52543;DHT22;38449;52.696;6.186;2023-07-29T12:20:24;23.30;99.90
52543;DHT22;38449;52.696;6.186;2023-07-29T12:22:58;23.20;99.90
52543;DHT22;38449;52.696;6.186;2023-07-29T12:25:26;23.10;99.90
52543;DHT22;38449;52.696;6.186;2023-07-29T12:27:52;23.00;99.90
52543;DHT22;38449;52.696;6.186;2023-07-29T12:30:22;23.00;99.90
52543;DHT22;38449;52.696;6.186;2023-07-29T12:32:49;23.00;99.90
52543;DHT22;38449;52.696;6.186;2023-07-29T12:35:15;22.90;99.90
52543;DHT22;38449;52.696;6.186;2023-07-29T12:37:41;23.00;99.90
52543;DHT22;38449;52.696;6.186;2023-07-29T12:40:29;23.00;99.90
52543;DHT22;38449;52.696;6.186;2023-07-29T12:42:56;23.10;99.90
52543;DHT22;38449;52.696;6.186;2023-07-29T12:45:22;23.10;99.90
52543;DHT22;38449;52.696;6.186;2023-07-29T12:47:53;23.10;99.90
52543;DHT22;38449;52.696;6.186;2023-07-29T12:50:20;23.00;99.90
52543;DHT22;38449;52.696;6.186;2023-07-29T12:52:48;22.90;99.90
52543;DHT22;38449;52.696;6.186;2023-07-29T12:55:15;22.80;99.90
52543;DHT22;38449;52.696;6.186;2023-07-29T12:57:41;22.70;99.90
52543;DHT22;38449;52.696;6.186;2023-07-29T13:00:09;22.60;99.90
52543;DHT22;38449;52.696;6.186;2023-07-29T13:02:35;22.70;99.90
52543;DHT22;38449;52.696;6.186;2023-07-29T13:05:04;22.60;99.90
52543;DHT22;38449;52.696;6.186;2023-07-29T13:07:32;22.50;99.90
52543;DHT22;38449;52.696;6.186;2023-07-29T13:09:58;22.60;99.90
52543;DHT22;38449;52.696;6.186;2023-07-29T13:12:24;22.60;99.90
52543;DHT22;38449;52.696;6.186;2023-07-29T13:14:50;22.70;99.90
52543;DHT22;38449;52.696;6.186;2023-07-29T13:17:17;22.80;99.90
52543;DHT22;38449;52.696;6.186;2023-07-29T13:19:43;22.90;99.90
52543;DHT22;38449;52.696;6.186;2023-07-29T13:22:09;22.90;99.90
52543;DHT22;38449;52.696;6.186;2023-07-29T13:24:35;22.80;99.90
52543;DHT22;38449;52.696;6.186;2023-07-29T13:27:01;22.70;99.90
52543;DHT22;38449;52.696;6.186;2023-07-29T13:29:28;22.60;99.90
52543;DHT22;38449;52.696;6.186;2023-07-29T13:31:54;22.50;99.90
52543;DHT22;38449;52.696;6.186;2023-07-29T13:34:20;22.40;99.90
52543;DHT22;38449;52.696;6.186;2023-07-29T13:36:47;22.00;99.90
52543;DHT22;38449;52.696;6.186;2023-07-29T13:39:13;21.90;99.90
52543;DHT22;38449;52.696;6.186;2023-07-29T13:41:39;21.70;99.90
52543;DHT22;38449;52.696;6.186;2023-07-29T13:44:06;21.70;99.90
52543;DHT22;38449;52.696;6.186;2023-07-29T13:46:32;21.70;99.90
52543;DHT22;38449;52.696;6.186;2023-07-29T13:48:58;21.70;99.90
52543;DHT22;38449;52.696;6.186;2023-07-29T13:51:24;21.70;99.90
52543;DHT22;38449;52.696;6.186;2023-07-29T13:53:51;21.80;99.90
52543;DHT22;38449;52.696;6.186;2023-07-29T13:56:17;21.60;99.90
52543;DHT22;38449;52.696;6.186;2023-07-29T13:58:43;21.50;99.90
52543;DHT22;38449;52.696;6.186;2023-07-29T14:01:10;21.30;99.90
52543;DHT22;38449;52.696;6.186;2023-07-29T14:03:36;21.20;99.90
52543;DHT22;38449;52.696;6.186;2023-07-29T14:06:02;21.40;99.90
52543;DHT22;38449;52.696;6.186;2023-07-29T14:08:28;21.40;99.90
52543;DHT22;38449;52.696;6.186;2023-07-29T14:10:55;21.60;99.90
52543;DHT22;38449;52.696;6.186;2023-07-29T14:13:21;21.70;99.90
52543;DHT22;38449;52.696;6.186;2023-07-29T14:15:48;21.90;99.90
52543;DHT22;38449;52.696;6.186;2023-07-29T14:18:14;22.10;99.90
52543;DHT22;38449;52.696;6.186;2023-07-29T14:20:41;22.20;99.90
52543;DHT22;38449;52.696;6.186;2023-07-29T14:23:07;22.20;99.90
52543;DHT22;38449;52.696;6.186;2023-07-29T14:25:33;22.30;99.90
52543;DHT22;38449;52.696;6.186;2023-07-29T14:27:59;22.40;99.90
52543;DHT22;38449;52.696;6.186;2023-07-29T14:30:26;22.40;99.90
52543;DHT22;38449;52.696;6.186;2023-07-29T14:32:52;22.60;99.90
52543;DHT22;38449;52.696;6.186;2023-07-29T14:35:18;22.70;99.90
52543;DHT22;38449;52.696;6.186;2023-07-29T14:37:44;22.80;99.90
52543;DHT22;38449;52.696;6.186;2023-07-29T14:40:11;22.60;99.90
52543;DHT22;38449;52.696;6.186;2023-07-29T14:42:37;22.70;99.90
52543;DHT22;38449;52.696;6.186;2023-07-29T14:45:04;22.60;99.90
52543;DHT22;38449;52.696;6.186;2023-07-29T14:47:30;22.60;99.90
52543;DHT22;38449;52.696;6.186;2023-07-29T14:50:01;22.60;99.90
52543;DHT22;38449;52.696;6.186;2023-07-29T14:52:27;22.50;99.90
52543;DHT22;38449;52.696;6.186;2023-07-29T14:54:53;22.60;99.90
52543;DHT22;38449;52.696;6.186;2023-07-29T14:57:19;22.80;99.90
52543;DHT22;38449;52.696;6.186;2023-07-29T14:59:45;22.70;99.90
52543;DHT22;38449;52.696;6.186;2023-07-29T15:02:12;22.80;99.90
52543;DHT22;38449;52.696;6.186;2023-07-29T15:04:38;22.80;99.90
52543;DHT22;38449;52.696;6.186;2023-07-29T15:07:04;22.80;99.90
52543;DHT22;38449;52.696;6.186;2023-07-29T15:09:31;22.80;99.90
52543;DHT22;38449;52.696;6.186;2023-07-29T15:11:57;22.80;99.90
52543;DHT22;38449;52.696;6.186;2023-07-29T15:14:23;22.80;99.90
52543;DHT22;38449;52.696;6.186;2023-07-29T15:16:50;22.80;99.90
52543;DHT22;38449;52.696;6.186;2023-07-29T15:19:16;22.80;99.90
52543;DHT22;38449;52.696;6.186;2023-07-29T15:21:42;22.90;99.90
52543;DHT22;38449;52.696;6.186;2023-07-29T15:24:08;22.90;99.90
52543;DHT22;38449;52.696;6.186;2023-07-29T15:26:35;22.80;99.90
52543;DHT22;38449;52.696;6.186;2023-07-29T15:29:01;22.80;99.90
52543;DHT22;38449;52.696;6.186;2023-07-29T15:31:28;22.80;99.90
52543;DHT22;38449;52.696;6.186;2023-07-29T15:33:54;22.90;99.90
52543;DHT22;38449;52.696;6.186;2023-07-29T15:36:20;22.90;99.90
52543;DHT22;38449;52.696;6.186;2023-07-29T15:38:47;22.90;99.90
52543;DHT22;38449;52.696;6.186;2023-07-29T15:41:13;23.00;99.90